createdAt,value
2023-02-24T00:02:06.312Z,101483.61
2023-02-24T00:04:40.945Z,101484.27
2023-02-24T00:07:11.676Z,101480.67
2023-02-24T00:09:40.374Z,101478.50
2023-02-24T00:12:13.350Z,101471.08
2023-02-24T00:14:44.817Z,101466.81
2023-02-24T00:17:14.847Z,101466.14
2023-02-24T00:19:43.712Z,101459.48
2023-02-24T00:22:12.959Z,101464.25
2023-02-24T00:24:42.241Z,101451.70
2023-02-24T00:27:13.386Z,101452.29
2023-02-24T00:29:42.431Z,101441.11
2023-02-24T00:32:13.644Z,101435.44
2023-02-24T00:34:43.472Z,101428.32
2023-02-24T00:37:12.393Z,101424.73
2023-02-24T00:39:42.237Z,101421.21
2023-02-24T00:42:12.221Z,101422.77
2023-02-24T00:44:45.404Z,101409.54
2023-02-24T00:47:17.716Z,101410.82
2023-02-24T00:49:46.371Z,101406.66
2023-02-24T00:52:20.057Z,101404.07
2023-02-24T00:54:49.730Z,101399.94
2023-02-24T00:57:20.711Z,101394.66
2023-02-24T00:59:51.516Z,101390.23
2023-02-24T01:02:20.759Z,101385.91
2023-02-24T01:04:51.200Z,101380.08
2023-02-24T01:07:19.777Z,101377.62
2023-02-24T01:09:51.015Z,101379.53
2023-02-24T01:12:22.103Z,101378.23
2023-02-24T01:14:52.979Z,101375.77
2023-02-24T01:17:22.114Z,101368.71
2023-02-24T01:19:50.734Z,101367.09
2023-02-24T01:22:20.834Z,101360.38
2023-02-24T01:24:49.626Z,101361.42
2023-02-24T01:27:19.571Z,101350.31
2023-02-24T01:29:49.167Z,101346.75
2023-02-24T01:32:21.112Z,101345.48
2023-02-24T01:34:53.402Z,101343.57
2023-02-24T01:37:22.102Z,101340.69
2023-02-24T01:39:51.204Z,101339.66
2023-02-24T01:42:22.054Z,101339.30
2023-02-24T01:44:52.455Z,101339.63
2023-02-24T01:47:23.504Z,101333.20
2023-02-24T01:49:55.060Z,101333.61
2023-02-24T01:52:38.292Z,101333.22
2023-02-24T01:55:24.670Z,101326.33
2023-02-24T01:57:54.503Z,101327.40
2023-02-24T02:00:38.378Z,101322.84
2023-02-24T02:03:18.728Z,101310.46
2023-02-24T02:05:48.824Z,101313.70
2023-02-24T02:08:19.730Z,101308.92
2023-02-24T02:10:48.253Z,101308.55
2023-02-24T02:13:21.832Z,101302.27
2023-02-24T02:15:56.954Z,101300.95
2023-02-24T02:18:59.239Z,101299.71
2023-02-24T02:21:36.838Z,101303.05
2023-02-24T02:24:27.133Z,101297.70
2023-02-24T02:27:07.036Z,101293.11
2023-02-24T02:29:47.425Z,101290.11
2023-02-24T02:32:22.218Z,101294.52
2023-02-24T02:35:19.418Z,101290.62
2023-02-24T02:37:57.314Z,101285.86
2023-02-24T02:41:03.244Z,101287.61
2023-02-24T02:43:39.779Z,101286.22
2023-02-24T02:46:35.926Z,101286.53
2023-02-24T02:49:21.197Z,101286.80
2023-02-24T02:51:57.546Z,101282.59
2023-02-24T02:54:45.597Z,101277.59
2023-02-24T02:57:21.657Z,101280.48
2023-02-24T03:00:21.670Z,101276.01
2023-02-24T03:03:03.528Z,101271.27
2023-02-24T03:05:46.697Z,101271.52
2023-02-24T03:08:25.968Z,101259.50
2023-02-24T03:11:00.517Z,101257.73
2023-02-24T03:13:37.021Z,101256.56
2023-02-24T03:16:06.793Z,101253.02
2023-02-24T03:18:41.341Z,101249.11
2023-02-24T03:21:16.955Z,101247.96
2023-02-24T03:23:50.262Z,101244.23
2023-02-24T03:26:21.802Z,101241.56
2023-02-24T03:28:59.524Z,101238.60
2023-02-24T03:31:35.926Z,101234.92
2023-02-24T03:34:43.491Z,101226.20
2023-02-24T03:37:12.551Z,101225.89
2023-02-24T03:39:41.480Z,101221.86
2023-02-24T03:42:19.178Z,101225.56
2023-02-24T03:44:50.029Z,101219.02
2023-02-24T03:47:20.757Z,101211.35
2023-02-24T03:49:50.581Z,101209.17
2023-02-24T03:52:29.299Z,101206.54
2023-02-24T03:55:23.893Z,101198.30
2023-02-24T03:58:32.376Z,101199.12
2023-02-24T04:01:10.886Z,101191.48
2023-02-24T04:04:22.580Z,101190.04
2023-02-24T04:07:17.146Z,101177.79
2023-02-24T04:10:20.329Z,101174.13
2023-02-24T04:12:52.731Z,101166.72
2023-02-24T04:15:44.100Z,101168.44
2023-02-24T04:18:19.774Z,101162.77
2023-02-24T04:20:53.562Z,101159.77
2023-02-24T04:23:31.975Z,101152.42
2023-02-24T04:26:01.924Z,101156.91
2023-02-24T04:28:31.519Z,101155.38
2023-02-24T04:31:10.360Z,101155.14
2023-02-24T04:33:40.567Z,101152.45
2023-02-24T04:36:13.071Z,101145.81
2023-02-24T04:38:42.241Z,101139.89
2023-02-24T04:41:11.163Z,101142.19
2023-02-24T04:43:41.159Z,101132.27
2023-02-24T04:46:09.483Z,101129.69
2023-02-24T04:48:39.253Z,101132.02
2023-02-24T04:51:08.456Z,101130.30
2023-02-24T04:53:38.274Z,101134.24
2023-02-24T04:56:10.130Z,101131.72
2023-02-24T04:58:40.076Z,101127.06
2023-02-24T05:01:13.540Z,101126.64
2023-02-24T05:03:45.355Z,101120.73
2023-02-24T05:06:17.949Z,101120.30
2023-02-24T05:08:46.293Z,101114.05
2023-02-24T05:11:16.519Z,101114.58
2023-02-24T05:13:46.158Z,101112.06
2023-02-24T05:16:18.193Z,101106.56
2023-02-24T05:18:46.683Z,101105.48
2023-02-24T05:21:35.751Z,101109.61
2023-02-24T05:24:07.327Z,101108.42
2023-02-24T05:26:38.171Z,101103.86
2023-02-24T05:29:07.034Z,101105.00
2023-02-24T05:31:37.241Z,101106.48
2023-02-24T05:34:08.025Z,101103.52
2023-02-24T05:36:40.548Z,101103.27
2023-02-24T05:39:14.792Z,101096.59
2023-02-24T05:41:43.484Z,101098.33
2023-02-24T05:44:16.030Z,101103.48
2023-02-24T05:46:46.874Z,101102.96
2023-02-24T05:49:24.021Z,101096.50
2023-02-24T05:51:55.520Z,101093.77
2023-02-24T05:54:33.030Z,101090.39
2023-02-24T05:57:14.140Z,101093.31
2023-02-24T05:59:46.076Z,101087.41
2023-02-24T06:02:16.439Z,101090.50
2023-02-24T06:04:55.821Z,101081.58
2023-02-24T06:07:29.247Z,101080.96
2023-02-24T06:10:00.238Z,101074.97
2023-02-24T06:12:34.201Z,101072.02
2023-02-24T06:15:08.058Z,101067.42
2023-02-24T06:17:37.006Z,101064.80
2023-02-24T06:20:15.207Z,101066.27
2023-02-24T06:22:43.419Z,101065.16
2023-02-24T06:25:12.213Z,101057.92
2023-02-24T06:27:40.668Z,101059.60
2023-02-24T06:30:10.585Z,101055.39
2023-02-24T06:32:39.368Z,101051.71
2023-02-24T06:35:08.805Z,101053.33
2023-02-24T06:37:37.384Z,101049.30
2023-02-24T06:40:16.083Z,101046.23
2023-02-24T06:42:54.307Z,101048.73
2023-02-24T06:45:24.535Z,101036.98
2023-02-24T06:47:53.434Z,101037.10
2023-02-24T06:50:22.228Z,101034.71
2023-02-24T06:52:55.102Z,101030.40
2023-02-24T06:55:26.442Z,101036.54
2023-02-24T06:57:57.922Z,101029.20
2023-02-24T07:00:40.880Z,101027.75
2023-02-24T07:03:17.364Z,101027.09
2023-02-24T07:05:50.594Z,101026.77
2023-02-24T07:08:24.172Z,101018.70
2023-02-24T07:10:54.232Z,101017.34
2023-02-24T07:13:28.903Z,101016.20
2023-02-24T07:16:06.965Z,101010.61
2023-02-24T07:18:41.796Z,101007.57
2023-02-24T07:21:16.515Z,101003.67
2023-02-24T07:23:45.817Z,101004.14
2023-02-24T07:26:19.140Z,100999.30
2023-02-24T07:28:48.247Z,100990.52
2023-02-24T07:31:19.832Z,100986.95
2023-02-24T07:33:48.878Z,100975.23
2023-02-24T07:36:23.397Z,100972.86
2023-02-24T07:38:54.043Z,100966.98
2023-02-24T07:41:23.681Z,100961.88
2023-02-24T07:43:56.354Z,100958.95
2023-02-24T07:46:28.216Z,100955.02
2023-02-24T07:49:00.034Z,100953.92
2023-02-24T07:51:29.895Z,100948.57
2023-02-24T07:54:01.468Z,100952.80
2023-02-24T07:56:31.502Z,100946.13
2023-02-24T07:59:03.013Z,100945.90
2023-02-24T08:01:39.210Z,100935.58
2023-02-24T08:04:08.976Z,100936.66
2023-02-24T08:06:46.090Z,100931.50
2023-02-24T08:09:18.521Z,100924.95
2023-02-24T08:11:52.606Z,100921.85
2023-02-24T08:14:32.936Z,100921.11
2023-02-24T08:17:05.573Z,100913.95
2023-02-24T08:19:39.915Z,100911.72
2023-02-24T08:22:20.144Z,100908.60
2023-02-24T08:24:52.882Z,100898.95
2023-02-24T08:27:25.947Z,100896.20
2023-02-24T08:29:58.381Z,100892.38
2023-02-24T08:32:38.421Z,100893.48
2023-02-24T08:35:15.110Z,100892.30
2023-02-24T08:37:47.665Z,100889.09
2023-02-24T08:40:33.423Z,100887.84
2023-02-24T08:43:22.467Z,100887.30
2023-02-24T08:46:25.820Z,100883.16
2023-02-24T08:49:01.151Z,100880.83
2023-02-24T08:51:35.690Z,100878.34
2023-02-24T08:54:15.774Z,100872.74
2023-02-24T08:56:49.382Z,100870.96
2023-02-24T08:59:37.695Z,100873.08
2023-02-24T09:02:24.628Z,100869.61
2023-02-24T09:05:04.079Z,100858.13
2023-02-24T09:07:37.632Z,100853.39
2023-02-24T09:10:11.798Z,100845.08
2023-02-24T09:12:41.595Z,100844.33
2023-02-24T09:15:17.528Z,100845.21
2023-02-24T09:17:46.343Z,100838.60
2023-02-24T09:20:43.803Z,100834.25
2023-02-24T09:23:20.453Z,100831.77
2023-02-24T09:25:54.720Z,100832.73
2023-02-24T09:28:27.662Z,100828.95
2023-02-24T09:31:05.069Z,100823.27
2023-02-24T09:33:41.969Z,100820.75
2023-02-24T09:36:27.993Z,100815.55
2023-02-24T09:39:00.793Z,100810.36
2023-02-24T09:42:02.762Z,100805.56
2023-02-24T09:44:37.387Z,100794.50
2023-02-24T09:47:20.206Z,100793.98
2023-02-24T09:49:59.339Z,100786.80
2023-02-24T09:52:43.109Z,100782.38
2023-02-24T09:55:26.642Z,100777.05
2023-02-24T09:58:31.928Z,100774.27
2023-02-24T10:01:34.456Z,100769.77
2023-02-24T10:04:21.501Z,100760.61
2023-02-24T10:07:03.253Z,100758.07
2023-02-24T10:09:42.827Z,100750.86
2023-02-24T10:12:20.113Z,100746.14
2023-02-24T10:15:00.543Z,100744.31
2023-02-24T10:17:40.445Z,100748.06
2023-02-24T10:20:28.760Z,100739.86
2023-02-24T10:23:29.807Z,100727.45
2023-02-24T10:26:51.347Z,100733.95
2023-02-24T10:29:39.730Z,100718.19
2023-02-24T10:32:24.086Z,100710.82
2023-02-24T10:34:53.585Z,100704.02
2023-02-24T10:37:29.039Z,100689.56
2023-02-24T10:40:10.277Z,100689.31
2023-02-24T10:42:49.023Z,100682.75
2023-02-24T10:45:24.806Z,100686.71
2023-02-24T10:47:57.418Z,100674.31
2023-02-24T10:50:54.870Z,100668.88
2023-02-24T10:53:41.206Z,100668.64
2023-02-24T10:56:27.193Z,100665.12
2023-02-24T10:59:24.894Z,100656.98
2023-02-24T11:01:59.391Z,100650.30
2023-02-24T11:05:03.870Z,100648.20
2023-02-24T11:07:53.795Z,100645.02
2023-02-24T11:10:41.605Z,100641.85
2023-02-24T11:13:35.857Z,100629.07
2023-02-24T11:16:26.675Z,100628.98
2023-02-24T11:18:57.445Z,100622.60
2023-02-24T11:21:27.650Z,100618.12
2023-02-24T11:24:03.062Z,100614.50
2023-02-24T11:26:38.007Z,100610.87
2023-02-24T11:29:58.566Z,100607.58
2023-02-24T11:33:04.606Z,100601.06
2023-02-24T11:35:56.952Z,100599.04
2023-02-24T11:38:42.533Z,100599.73
2023-02-24T11:41:41.251Z,100590.78
2023-02-24T11:44:35.052Z,100589.15
2023-02-24T11:47:09.984Z,100584.96
2023-02-24T11:49:48.603Z,100578.45
2023-02-24T11:52:22.821Z,100574.32
2023-02-24T11:54:56.873Z,100567.36
2023-02-24T11:57:45.789Z,100571.36
2023-02-24T12:00:29.635Z,100563.09
2023-02-24T12:03:05.097Z,100559.00
2023-02-24T12:05:39.322Z,100557.09
2023-02-24T12:08:32.027Z,100551.18
2023-02-24T12:11:33.884Z,100546.34
2023-02-24T12:14:02.160Z,100539.23
2023-02-24T12:16:35.894Z,100533.70
2023-02-24T12:19:15.197Z,100531.98
2023-02-24T12:21:48.801Z,100529.30
2023-02-24T12:24:17.398Z,100532.29
2023-02-24T12:27:01.479Z,100532.08
2023-02-24T12:30:06.741Z,100531.34
2023-02-24T12:32:52.354Z,100522.25
2023-02-24T12:35:53.157Z,100518.86
2023-02-24T12:38:27.788Z,100515.58
2023-02-24T12:41:18.827Z,100511.13
2023-02-24T12:44:06.098Z,100503.97
2023-02-24T12:46:37.615Z,100503.23
2023-02-24T12:49:18.125Z,100505.32
2023-02-24T12:51:54.702Z,100503.27
2023-02-24T12:54:49.777Z,100496.77
2023-02-24T12:57:34.130Z,100494.70
2023-02-24T13:00:15.038Z,100482.45
2023-02-24T13:03:10.402Z,100478.70
2023-02-24T13:05:59.758Z,100478.77
2023-02-24T13:08:40.534Z,100475.86
2023-02-24T13:11:59.273Z,100474.85
2023-02-24T13:14:41.254Z,100471.54
2023-02-24T13:17:12.824Z,100471.23
2023-02-24T13:19:43.762Z,100472.27
2023-02-24T13:22:12.140Z,100471.34
2023-02-24T13:24:44.815Z,100465.17
2023-02-24T13:27:13.405Z,100466.59
2023-02-24T13:29:54.493Z,100464.27
2023-02-24T13:32:25.892Z,100456.39
2023-02-24T13:34:54.655Z,100457.79
2023-02-24T13:37:34.867Z,100452.89
2023-02-24T13:40:26.710Z,100446.83
2023-02-24T13:42:58.460Z,100449.21
2023-02-24T13:45:31.276Z,100445.34
2023-02-24T13:48:41.079Z,100436.61
2023-02-24T13:51:26.459Z,100435.79
2023-02-24T13:54:23.606Z,100434.17
2023-02-24T13:57:16.538Z,100434.32
2023-02-24T14:00:13.281Z,100429.50
2023-02-24T14:02:44.394Z,100429.91
2023-02-24T14:05:36.014Z,100424.39
2023-02-24T14:08:05.338Z,100420.33
2023-02-24T14:10:36.341Z,100427.42
2023-02-24T14:13:08.556Z,100426.64
2023-02-24T14:15:42.156Z,100425.44
2023-02-24T14:18:19.434Z,100418.81
2023-02-24T14:20:48.039Z,100415.31
2023-02-24T14:23:29.256Z,100412.89
2023-02-24T14:26:06.410Z,100415.44
2023-02-24T14:28:37.772Z,100414.77
2023-02-24T14:31:15.590Z,100406.49
2023-02-24T14:33:45.587Z,100402.79
2023-02-24T14:36:18.800Z,100399.30
2023-02-24T14:38:47.458Z,100395.12
2023-02-24T14:41:27.855Z,100392.20
2023-02-24T14:43:56.812Z,100390.55
2023-02-24T14:46:25.548Z,100387.98
2023-02-24T14:48:56.396Z,100388.55
2023-02-24T14:51:36.455Z,100388.30
2023-02-24T14:54:13.365Z,100385.86
2023-02-24T14:56:42.260Z,100380.50
2023-02-24T14:59:39.197Z,100378.09
2023-02-24T15:02:19.216Z,100377.00
2023-02-24T15:04:48.041Z,100374.21
2023-02-24T15:07:21.444Z,100369.96
2023-02-24T15:09:51.977Z,100361.62
2023-02-24T15:12:23.229Z,100361.41
2023-02-24T15:14:55.108Z,100362.03
2023-02-24T15:17:23.971Z,100355.08
2023-02-24T15:19:55.188Z,100351.16
2023-02-24T15:22:28.133Z,100351.86
2023-02-24T15:25:16.661Z,100352.92
2023-02-24T15:28:02.083Z,100352.16
2023-02-24T15:30:40.236Z,100347.75
2023-02-24T15:33:21.217Z,100346.94
2023-02-24T15:35:54.608Z,100344.48
2023-02-24T15:38:26.066Z,100342.43
2023-02-24T15:41:01.008Z,100343.38
2023-02-24T15:43:37.441Z,100345.19
2023-02-24T15:46:15.720Z,100344.40
2023-02-24T15:48:47.233Z,100340.30
2023-02-24T15:51:37.332Z,100341.16
2023-02-24T15:54:12.957Z,100343.71
2023-02-24T15:56:42.848Z,100338.64
2023-02-24T15:59:15.261Z,100334.33
2023-02-24T16:01:43.955Z,100325.52
2023-02-24T16:04:12.324Z,100325.40
2023-02-24T16:06:44.101Z,100325.82
2023-02-24T16:09:15.201Z,100322.66
2023-02-24T16:11:47.038Z,100324.38
2023-02-24T16:14:17.945Z,100322.16
2023-02-24T16:16:46.374Z,100326.96
2023-02-24T16:19:15.967Z,100324.67
2023-02-24T16:21:44.479Z,100325.45
2023-02-24T16:24:13.026Z,100327.92
2023-02-24T16:26:41.915Z,100322.51
2023-02-24T16:29:14.886Z,100321.21
2023-02-24T16:31:43.241Z,100319.88
2023-02-24T16:34:15.932Z,100319.77
2023-02-24T16:36:44.463Z,100326.30
2023-02-24T16:39:14.387Z,100326.79
2023-02-24T16:41:42.764Z,100324.80
2023-02-24T16:44:11.359Z,100327.30
2023-02-24T16:46:44.036Z,100325.11
2023-02-24T16:49:19.275Z,100322.83
2023-02-24T16:51:47.675Z,100319.66
2023-02-24T16:54:15.941Z,100317.58
2023-02-24T16:56:45.548Z,100311.11
2023-02-24T16:59:14.388Z,100307.41
2023-02-24T17:01:43.130Z,100308.54
2023-02-24T17:04:13.620Z,100308.16
2023-02-24T17:06:41.857Z,100305.59
2023-02-24T17:09:10.253Z,100310.38
2023-02-24T17:11:38.523Z,100309.31
2023-02-24T17:14:06.925Z,100306.65
2023-02-24T17:16:39.667Z,100308.22
2023-02-24T17:19:08.900Z,100302.89
2023-02-24T17:21:40.769Z,100299.19
2023-02-24T17:24:20.231Z,100297.14
2023-02-24T17:26:48.590Z,100293.02
2023-02-24T17:29:16.970Z,100287.80
2023-02-24T17:31:45.887Z,100285.55
2023-02-24T17:34:14.351Z,100278.09
2023-02-24T17:36:42.835Z,100276.58
2023-02-24T17:39:11.290Z,100273.36
2023-02-24T17:41:39.701Z,100276.13
2023-02-24T17:44:08.089Z,100274.98
2023-02-24T17:46:36.953Z,100276.98
2023-02-24T17:49:05.577Z,100280.35
2023-02-24T17:51:33.956Z,100281.05
2023-02-24T17:54:02.440Z,100275.49
2023-02-24T17:56:31.238Z,100272.96
2023-02-24T17:59:01.179Z,100266.34
2023-02-24T18:01:29.771Z,100263.19
2023-02-24T18:03:58.237Z,100264.67
2023-02-24T18:06:26.922Z,100261.63
2023-02-24T18:08:55.310Z,100256.07
2023-02-24T18:11:23.485Z,100258.21
2023-02-24T18:13:52.890Z,100255.42
2023-02-24T18:16:22.033Z,100255.24
2023-02-24T18:18:50.995Z,100255.33
2023-02-24T18:21:19.805Z,100252.20
2023-02-24T18:23:49.907Z,100248.41
2023-02-24T18:26:18.912Z,100251.80
2023-02-24T18:28:47.294Z,100252.36
2023-02-24T18:31:19.224Z,100251.90
2023-02-24T18:33:48.240Z,100244.15
2023-02-24T18:36:17.875Z,100236.85
2023-02-24T18:38:46.766Z,100240.38
2023-02-24T18:41:21.300Z,100237.08
2023-02-24T18:43:52.549Z,100229.23
2023-02-24T18:46:22.548Z,100229.09
2023-02-24T18:48:51.689Z,100227.04
2023-02-24T18:51:23.536Z,100223.05
2023-02-24T18:53:53.065Z,100220.69
2023-02-24T18:56:26.877Z,100216.08
2023-02-24T18:58:57.400Z,100213.58
2023-02-24T19:01:30.088Z,100212.36
2023-02-24T19:03:59.135Z,100214.09
2023-02-24T19:06:29.493Z,100210.60
2023-02-24T19:09:21.760Z,100212.98
2023-02-24T19:11:51.103Z,100213.43
2023-02-24T19:14:19.409Z,100209.61
2023-02-24T19:16:47.897Z,100210.63
2023-02-24T19:19:16.837Z,100213.88
2023-02-24T19:21:45.795Z,100211.67
2023-02-24T19:24:14.791Z,100209.15
2023-02-24T19:26:47.707Z,100209.39
2023-02-24T19:29:17.393Z,100207.83
2023-02-24T19:31:46.044Z,100201.43
2023-02-24T19:34:15.593Z,100198.13
2023-02-24T19:36:43.874Z,100193.23
2023-02-24T19:39:15.029Z,100185.23
2023-02-24T19:41:44.120Z,100181.70
2023-02-24T19:44:13.040Z,100180.46
2023-02-24T19:46:43.365Z,100177.62
2023-02-24T19:49:14.835Z,100173.40
2023-02-24T19:51:43.809Z,100173.55
2023-02-24T19:54:14.004Z,100173.46
2023-02-24T19:56:42.417Z,100181.48
2023-02-24T19:59:11.540Z,100181.85
2023-02-24T20:01:39.874Z,100181.05
2023-02-24T20:04:09.034Z,100185.69
2023-02-24T20:06:40.456Z,100177.48
2023-02-24T20:09:11.494Z,100173.30
2023-02-24T20:11:40.339Z,100174.17
2023-02-24T20:14:10.545Z,100166.58
2023-02-24T20:16:40.489Z,100162.13
2023-02-24T20:19:10.053Z,100160.77
2023-02-24T20:21:39.251Z,100152.70
2023-02-24T20:24:13.391Z,100148.14
2023-02-24T20:26:47.255Z,100150.48
2023-02-24T20:29:18.427Z,100156.55
2023-02-24T20:31:47.959Z,100154.73
2023-02-24T20:34:16.979Z,100156.01
2023-02-24T20:36:46.032Z,100160.81
2023-02-24T20:39:14.757Z,100155.41
2023-02-24T20:41:43.956Z,100147.00
2023-02-24T20:44:13.233Z,100144.43
2023-02-24T20:46:42.674Z,100135.98
2023-02-24T20:49:14.738Z,100135.95
2023-02-24T20:51:43.787Z,100137.87
2023-02-24T20:54:13.444Z,100138.21
2023-02-24T20:56:43.700Z,100137.13
2023-02-24T20:59:22.188Z,100132.52
2023-02-24T21:01:51.156Z,100125.28
2023-02-24T21:04:21.544Z,100119.52
2023-02-24T21:06:52.024Z,100121.09
2023-02-24T21:09:20.311Z,100117.81
2023-02-24T21:11:48.821Z,100110.23
2023-02-24T21:14:17.694Z,100107.27
2023-02-24T21:16:46.810Z,100108.13
2023-02-24T21:19:15.392Z,100114.40
2023-02-24T21:21:43.965Z,100119.16
2023-02-24T21:24:12.358Z,100120.97
2023-02-24T21:26:40.734Z,100115.72
2023-02-24T21:29:09.016Z,100109.06
2023-02-24T21:31:37.495Z,100106.84
2023-02-24T21:34:06.317Z,100101.96
2023-02-24T21:36:34.572Z,100095.82
2023-02-24T21:39:03.174Z,100093.31
2023-02-24T21:41:31.789Z,100089.80
2023-02-24T21:44:00.805Z,100085.48
2023-02-24T21:46:30.454Z,100092.58
2023-02-24T21:48:59.676Z,100089.51
2023-02-24T21:51:29.429Z,100092.91
2023-02-24T21:53:58.407Z,100090.80
2023-02-24T21:56:29.431Z,100085.87
2023-02-24T21:59:01.914Z,100085.41
2023-02-24T22:01:39.490Z,100083.86
2023-02-24T22:04:11.071Z,100080.61
2023-02-24T22:06:41.965Z,100073.52
2023-02-24T22:09:11.209Z,100068.70
2023-02-24T22:11:41.205Z,100067.19
2023-02-24T22:14:14.113Z,100065.29
2023-02-24T22:16:43.265Z,100064.45
2023-02-24T22:19:12.250Z,100062.08
2023-02-24T22:21:42.624Z,100063.70
2023-02-24T22:24:13.971Z,100060.44
2023-02-24T22:26:43.193Z,100060.19
2023-02-24T22:29:11.997Z,100057.65
2023-02-24T22:31:43.916Z,100055.51
2023-02-24T22:34:14.895Z,100051.10
2023-02-24T22:36:43.616Z,100055.92
2023-02-24T22:39:16.754Z,100062.04
2023-02-24T22:41:46.916Z,100066.54
2023-02-24T22:44:19.398Z,100067.41
2023-02-24T22:46:48.408Z,100058.88
2023-02-24T22:49:17.455Z,100051.37
2023-02-24T22:51:45.949Z,100051.25
2023-02-24T22:54:14.779Z,100049.20
2023-02-24T22:56:43.741Z,100044.91
2023-02-24T22:59:12.764Z,100041.33
2023-02-24T23:01:43.892Z,100036.75
2023-02-24T23:04:17.267Z,100036.00
2023-02-24T23:06:47.803Z,100035.63
2023-02-24T23:09:20.106Z,100031.70
2023-02-24T23:11:49.112Z,100033.70
2023-02-24T23:14:17.611Z,100026.73
2023-02-24T23:16:47.510Z,100023.64
2023-02-24T23:19:18.025Z,100024.29
2023-02-24T23:21:49.859Z,100020.48
2023-02-24T23:24:20.020Z,100023.59
2023-02-24T23:26:54.767Z,100020.72
2023-02-24T23:29:24.439Z,100019.25
2023-02-24T23:31:53.595Z,100022.15
2023-02-24T23:34:22.074Z,100020.61
2023-02-24T23:36:51.077Z,100018.36
2023-02-24T23:39:24.049Z,100017.16
2023-02-24T23:41:56.985Z,100016.79
2023-02-24T23:44:26.068Z,100011.67
2023-02-24T23:46:55.290Z,100014.62
2023-02-24T23:49:24.288Z,100013.23
2023-02-24T23:51:52.738Z,100005.16
2023-02-24T23:54:21.121Z,100002.86
2023-02-24T23:56:54.417Z,99999.83
2023-02-24T23:59:23.170Z,99994.56
